createdAt,value
2018-06-11T00:00:44.005Z,20.1
2018-06-11T00:01:45.323Z,20.3
2018-06-11T00:02:49.306Z,20
2018-06-11T00:03:50.685Z,19.7
2018-06-11T00:04:52.245Z,19.3
2018-06-11T00:05:53.520Z,19.3
2018-06-11T00:06:58.071Z,19.7
2018-06-11T00:08:02.840Z,19.9
2018-06-11T00:09:04.112Z,20.2
2018-06-11T00:10:05.622Z,20.4
2018-06-11T00:11:06.941Z,19.5
2018-06-11T00:12:08.324Z,19.6
2018-06-11T00:13:09.639Z,20
2018-06-11T00:14:10.937Z,20.1
2018-06-11T00:15:12.185Z,20
2018-06-11T00:16:15.100Z,19.9
2018-06-11T00:17:16.565Z,20.2
2018-06-11T00:18:17.849Z,19.6
2018-06-11T00:19:19.081Z,19.1
2018-06-11T00:20:23.073Z,19.6
2018-06-11T00:21:24.305Z,19.5
2018-06-11T00:22:25.996Z,19.7
2018-06-11T00:23:27.240Z,20.1
2018-06-11T00:24:28.961Z,20
2018-06-11T00:25:30.246Z,20.1
2018-06-11T00:26:31.546Z,20
2018-06-11T00:27:33.197Z,20
2018-06-11T00:28:34.479Z,20.1
2018-06-11T00:29:35.782Z,20.2
2018-06-11T00:30:39.916Z,20.3
2018-06-11T00:31:41.308Z,20.1
2018-06-11T00:32:42.628Z,20
2018-06-11T00:33:43.858Z,20.3
2018-06-11T00:34:47.653Z,20.1
2018-06-11T00:35:49.036Z,19.9
2018-06-11T00:36:50.371Z,19.2
2018-06-11T00:37:51.746Z,19.7
2018-06-11T00:38:53.098Z,19.6
2018-06-11T00:39:54.419Z,19.8
2018-06-11T00:40:55.747Z,20
2018-06-11T00:41:59.179Z,19.8
2018-06-11T00:43:02.237Z,19.2
2018-06-11T00:44:04.565Z,18.9
2018-06-11T00:45:06.124Z,18.6
2018-06-11T00:46:07.412Z,18.8
2018-06-11T00:47:08.694Z,19
2018-06-11T00:48:10.036Z,18.7
2018-06-11T00:49:11.332Z,18.7
2018-06-11T00:50:12.650Z,19.2
2018-06-11T00:51:13.963Z,18.7
2018-06-11T00:52:15.832Z,18.8
2018-06-11T00:53:22.346Z,18.8
2018-06-11T00:54:23.635Z,18.4
2018-06-11T00:55:24.964Z,18.6
2018-06-11T00:56:26.676Z,19
2018-06-11T00:57:27.966Z,19
2018-06-11T00:58:30.192Z,18.5
2018-06-11T00:59:31.801Z,18.5
2018-06-11T01:00:33.288Z,18.5
2018-06-11T01:01:34.781Z,18.4
2018-06-11T01:02:43.184Z,18.7
2018-06-11T01:03:44.784Z,18.7
2018-06-11T01:04:46.423Z,18.4
2018-06-11T01:05:47.698Z,18.4
2018-06-11T01:06:49.701Z,18.4
2018-06-11T01:07:51.681Z,18.3
2018-06-11T01:08:53.232Z,18.2
2018-06-11T01:09:54.473Z,18.1
2018-06-11T01:10:55.743Z,18
2018-06-11T01:11:56.999Z,18.4
2018-06-11T01:12:58.328Z,18.4
2018-06-11T01:13:59.678Z,18.1
2018-06-11T01:15:01.025Z,18.2
2018-06-11T01:16:04.496Z,18.1
2018-06-11T01:17:05.805Z,18.5
2018-06-11T01:18:07.102Z,18.7
2018-06-11T01:19:08.464Z,18.6
2018-06-11T01:20:09.834Z,18.3
2018-06-11T01:21:13.558Z,18.1
2018-06-11T01:22:14.971Z,18.1
2018-06-11T01:23:17.385Z,18
2018-06-11T01:24:21.129Z,18.1
2018-06-11T01:25:22.924Z,17.9
2018-06-11T01:26:24.236Z,18.1
2018-06-11T01:27:25.701Z,18
2018-06-11T01:28:27.038Z,18
2018-06-11T01:29:28.584Z,17.9
2018-06-11T01:30:29.938Z,17.8
2018-06-11T01:31:31.324Z,17.8
2018-06-11T01:32:35.637Z,17.9
2018-06-11T01:33:36.944Z,18.1
2018-06-11T01:34:38.225Z,18.4
2018-06-11T01:35:39.477Z,18.1
2018-06-11T01:36:40.800Z,17.8
2018-06-11T01:37:42.031Z,17.8
2018-06-11T01:38:43.356Z,17.7
2018-06-11T01:39:44.670Z,17.9
2018-06-11T01:40:46.258Z,18.4
2018-06-11T01:41:47.536Z,18
2018-06-11T01:42:48.823Z,17.9
2018-06-11T01:43:50.120Z,18.2
2018-06-11T01:44:51.429Z,18
2018-06-11T01:45:52.741Z,17.9
2018-06-11T01:46:54.035Z,18.1
2018-06-11T01:47:56.519Z,18.4
2018-06-11T01:49:03.538Z,17.9
2018-06-11T01:50:04.879Z,17.9
2018-06-11T01:51:06.723Z,18
2018-06-11T01:52:08.009Z,18
2018-06-11T01:53:09.303Z,17.8
2018-06-11T01:54:10.692Z,18.1
2018-06-11T01:55:12.025Z,17.8
2018-06-11T01:56:13.324Z,17.8
2018-06-11T01:57:14.644Z,17.6
2018-06-11T01:58:16.911Z,18
2018-06-11T01:59:18.212Z,18.2
2018-06-11T02:00:19.708Z,18
2018-06-11T02:01:20.935Z,17.7
2018-06-11T02:02:22.304Z,17.7
2018-06-11T02:03:23.996Z,17.7
2018-06-11T02:04:25.260Z,17.7
2018-06-11T02:05:26.592Z,18
2018-06-11T02:06:27.859Z,17.8
2018-06-11T02:07:31.390Z,17.8
2018-06-11T02:08:32.793Z,17.6
2018-06-11T02:09:34.336Z,18
2018-06-11T02:10:35.727Z,17.7
2018-06-11T02:11:36.968Z,17.8
2018-06-11T02:12:40.493Z,17.9
2018-06-11T02:13:41.830Z,17.9
2018-06-11T02:14:43.359Z,17.8
2018-06-11T02:15:45.863Z,17.7
2018-06-11T02:16:49.559Z,17.8
2018-06-11T02:17:53.326Z,18
2018-06-11T02:18:54.595Z,17.8
2018-06-11T02:19:55.870Z,17.6
2018-06-11T02:20:57.289Z,17.9
2018-06-11T02:21:58.602Z,17.8
2018-06-11T02:22:59.804Z,17.7
2018-06-11T02:24:01.161Z,17.6
2018-06-11T02:25:02.437Z,18
2018-06-11T02:26:04.175Z,17.8
2018-06-11T02:27:05.428Z,18.2
2018-06-11T02:28:07.543Z,18.5
2018-06-11T02:29:09.220Z,18.4
2018-06-11T02:30:11.503Z,18.1
2018-06-11T02:31:13.091Z,18.1
2018-06-11T02:32:14.357Z,18
2018-06-11T02:33:15.698Z,18.2
2018-06-11T02:34:16.974Z,18.5
2018-06-11T02:35:18.252Z,18.2
2018-06-11T02:36:19.569Z,17.9
2018-06-11T02:37:20.788Z,17.8
2018-06-11T02:38:26.290Z,18.2
2018-06-11T02:39:27.548Z,18.3
2018-06-11T02:40:28.980Z,18.4
2018-06-11T02:41:30.347Z,18.6
2018-06-11T02:42:31.933Z,18.5
2018-06-11T02:43:33.254Z,18
2018-06-11T02:44:34.780Z,18.3
2018-06-11T02:45:38.291Z,18.3
2018-06-11T02:46:39.623Z,18.3
2018-06-11T02:47:41.093Z,18.3
2018-06-11T02:48:42.480Z,18.3
2018-06-11T02:49:43.749Z,18.3
2018-06-11T02:50:45.301Z,18.4
2018-06-11T02:51:46.654Z,18.3
2018-06-11T02:52:48.260Z,18
2018-06-11T02:53:49.661Z,17.9
2018-06-11T02:54:51.096Z,17.8
2018-06-11T02:55:52.461Z,17.6
2018-06-11T02:56:53.796Z,18.1
2018-06-11T02:57:55.084Z,17.7
2018-06-11T02:58:56.495Z,17.7
2018-06-11T02:59:57.768Z,17.9
2018-06-11T03:00:59.069Z,17.7
2018-06-11T03:02:00.606Z,17.5
2018-06-11T03:03:01.936Z,17.5
2018-06-11T03:04:03.336Z,17.7
2018-06-11T03:05:04.629Z,17.6
2018-06-11T03:06:05.939Z,17.6
2018-06-11T03:07:08.284Z,17.5
2018-06-11T03:08:09.619Z,17.6
2018-06-11T03:09:19.420Z,17.7
2018-06-11T03:10:20.763Z,17.6
2018-06-11T03:11:22.052Z,17.7
2018-06-11T03:12:24.415Z,17.9
2018-06-11T03:13:25.698Z,18.1
2018-06-11T03:14:27.064Z,18
2018-06-11T03:15:28.404Z,17.9
2018-06-11T03:16:29.637Z,18
2018-06-11T03:17:31.298Z,18.1
2018-06-11T03:18:32.572Z,18.1
2018-06-11T03:19:33.882Z,17.9
2018-06-11T03:20:35.139Z,17.8
2018-06-11T03:21:37.244Z,18.1
2018-06-11T03:22:45.704Z,17.8
2018-06-11T03:23:47.100Z,17.9
2018-06-11T03:24:48.345Z,17.5
2018-06-11T03:25:49.672Z,17.6
2018-06-11T03:26:50.948Z,17.4
2018-06-11T03:27:52.299Z,17.5
2018-06-11T03:28:53.627Z,17.6
2018-06-11T03:29:54.917Z,17.4
2018-06-11T03:30:56.195Z,17.4
2018-06-11T03:31:57.496Z,17.2
2018-06-11T03:32:59.233Z,17.2
2018-06-11T03:34:00.537Z,17.1
2018-06-11T03:35:01.910Z,17.1
2018-06-11T03:36:03.185Z,17.1
2018-06-11T03:37:05.568Z,17.1
2018-06-11T03:38:06.900Z,17.3
2018-06-11T03:39:08.184Z,17.2
2018-06-11T03:40:09.689Z,17.2
2018-06-11T03:41:11.318Z,17.3
2018-06-11T03:42:12.611Z,17.1
2018-06-11T03:43:14.198Z,17.4
2018-06-11T03:44:15.653Z,17.4
2018-06-11T03:45:17.293Z,17.2
2018-06-11T03:46:19.891Z,17.1
2018-06-11T03:47:21.395Z,17.2
2018-06-11T03:48:22.769Z,17.5
2018-06-11T03:49:24.759Z,17.6
2018-06-11T03:50:26.362Z,17.2
2018-06-11T03:51:27.632Z,17.1
2018-06-11T03:52:28.940Z,17.4
2018-06-11T03:53:30.225Z,17.6
2018-06-11T03:54:31.529Z,17.3
2018-06-11T03:55:32.821Z,17.3
2018-06-11T03:56:34.323Z,17.3
2018-06-11T03:57:35.576Z,17.5
2018-06-11T03:58:37.152Z,17.3
2018-06-11T03:59:38.412Z,17.1
2018-06-11T04:00:39.719Z,17.3
2018-06-11T04:01:41.619Z,17.1
2018-06-11T04:02:42.973Z,17.1
2018-06-11T04:03:44.666Z,17
2018-06-11T04:04:45.965Z,17
2018-06-11T04:05:47.279Z,17
2018-06-11T04:06:48.558Z,17
2018-06-11T04:07:49.851Z,17.2
2018-06-11T04:08:53.540Z,17
2018-06-11T04:09:57.224Z,17
2018-06-11T04:10:58.527Z,17.1
2018-06-11T04:12:01.851Z,17.4
2018-06-11T04:13:03.172Z,17.2
2018-06-11T04:14:04.789Z,17
2018-06-11T04:15:06.115Z,17
2018-06-11T04:16:07.385Z,17.1
2018-06-11T04:17:08.699Z,16.9
2018-06-11T04:18:09.971Z,17
2018-06-11T04:19:11.316Z,17.1
2018-06-11T04:20:12.551Z,17
2018-06-11T04:21:18.291Z,17
2018-06-11T04:22:25.754Z,17.1
2018-06-11T04:23:27.079Z,17
2018-06-11T04:24:28.429Z,17
2018-06-11T04:25:29.701Z,16.9
2018-06-11T04:26:30.988Z,17
2018-06-11T04:27:32.255Z,16.9
2018-06-11T04:28:33.527Z,16.9
2018-06-11T04:29:34.836Z,16.9
2018-06-11T04:30:36.120Z,16.8
2018-06-11T04:31:37.441Z,16.9
2018-06-11T04:32:38.680Z,16.9
2018-06-11T04:33:42.301Z,16.9
2018-06-11T04:34:43.854Z,16.9
2018-06-11T04:35:45.192Z,16.9
2018-06-11T04:36:46.753Z,16.9
2018-06-11T04:37:48.035Z,17
2018-06-11T04:38:49.301Z,17
2018-06-11T04:39:50.637Z,17
2018-06-11T04:40:51.905Z,16.9
2018-06-11T04:41:53.263Z,16.9
2018-06-11T04:42:54.697Z,16.9
2018-06-11T04:43:56.016Z,17
2018-06-11T04:44:57.507Z,16.9
2018-06-11T04:45:58.812Z,17
2018-06-11T04:47:00.125Z,17
2018-06-11T04:48:01.464Z,17
2018-06-11T04:49:02.742Z,16.9
2018-06-11T04:50:06.058Z,16.9
2018-06-11T04:51:07.664Z,17
2018-06-11T04:52:08.943Z,17.1
2018-06-11T04:53:13.535Z,17.1
2018-06-11T04:54:14.909Z,17.2
2018-06-11T04:55:16.344Z,16.9
2018-06-11T04:56:17.668Z,16.8
2018-06-11T04:57:19.225Z,16.8
2018-06-11T04:58:20.754Z,16.8
2018-06-11T04:59:23.449Z,16.8
2018-06-11T05:00:24.863Z,16.9
2018-06-11T05:01:44.870Z,17.1
2018-06-11T05:02:48.735Z,17
2018-06-11T05:03:52.567Z,17
2018-06-11T05:04:53.832Z,17.1
2018-06-11T05:05:55.358Z,17.2
2018-06-11T05:06:56.685Z,16.9
2018-06-11T05:07:58.207Z,16.7
2018-06-11T05:08:59.547Z,16.9
2018-06-11T05:10:00.845Z,17
2018-06-11T05:11:02.278Z,16.8
2018-06-11T05:12:08.647Z,16.9
2018-06-11T05:13:10.177Z,17
2018-06-11T05:14:14.747Z,16.8
2018-06-11T05:15:16.067Z,17
2018-06-11T05:16:18.649Z,16.8
2018-06-11T05:17:20.169Z,16.7
2018-06-11T05:18:21.923Z,16.6
2018-06-11T05:19:23.204Z,16.6
2018-06-11T05:20:29.346Z,16.5
2018-06-11T05:21:30.766Z,16.6
2018-06-11T05:22:32.037Z,16.6
2018-06-11T05:23:33.348Z,16.7
2018-06-11T05:24:34.654Z,17
2018-06-11T05:25:35.938Z,16.6
2018-06-11T05:26:37.368Z,16.7
2018-06-11T05:27:38.674Z,16.7
2018-06-11T05:28:41.290Z,16.6
2018-06-11T05:29:42.744Z,16.6
2018-06-11T05:30:44.089Z,16.6
2018-06-11T05:31:45.415Z,16.7
2018-06-11T05:32:46.784Z,16.6
2018-06-11T05:33:48.322Z,16.6
2018-06-11T05:34:49.663Z,16.9
2018-06-11T05:35:50.949Z,17
2018-06-11T05:36:52.359Z,16.9
2018-06-11T05:37:53.721Z,16.9
2018-06-11T05:38:55.052Z,16.9
2018-06-11T05:39:56.629Z,16.9
2018-06-11T05:41:03.315Z,16.5
2018-06-11T05:42:04.813Z,17.1
2018-06-11T05:43:06.405Z,17.4
2018-06-11T05:44:07.688Z,17.7
2018-06-11T05:45:10.018Z,18
2018-06-11T05:46:13.352Z,18
2018-06-11T05:47:14.787Z,18.3
2018-06-11T05:48:16.288Z,18.4
2018-06-11T05:49:17.665Z,18.4
2018-06-11T05:50:19.239Z,18.4
2018-06-11T05:51:21.548Z,18.5
2018-06-11T05:52:25.083Z,18.4
2018-06-11T05:53:26.749Z,18.6
2018-06-11T05:54:28.372Z,18.7
2018-06-11T05:55:30.107Z,18.6
2018-06-11T05:56:31.465Z,18.6
2018-06-11T05:57:33.748Z,18.7
2018-06-11T05:58:35.235Z,18.7
2018-06-11T05:59:36.786Z,18.5
2018-06-11T06:00:40.413Z,18.7
2018-06-11T06:01:42.933Z,18.7
2018-06-11T06:02:44.322Z,18.9
2018-06-11T06:03:47.020Z,19
2018-06-11T06:04:48.357Z,19
2018-06-11T06:05:49.680Z,19
2018-06-11T06:06:50.933Z,18.9
2018-06-11T06:07:52.277Z,18.9
2018-06-11T06:08:53.841Z,18.9
2018-06-11T06:09:57.949Z,18.9
2018-06-11T06:10:59.363Z,18.9
2018-06-11T06:12:03.472Z,19.1
2018-06-11T06:13:06.849Z,19.1
2018-06-11T06:14:08.222Z,19.2
2018-06-11T06:15:09.703Z,19.3
2018-06-11T06:16:11.278Z,19.3
2018-06-11T06:17:16.825Z,19.2
2018-06-11T06:18:18.327Z,19.2
2018-06-11T06:19:19.839Z,19.3
2018-06-11T06:20:21.243Z,19.3
2018-06-11T06:21:22.574Z,19.3
2018-06-11T06:22:23.894Z,19.3
2018-06-11T06:23:25.294Z,19.4
2018-06-11T06:24:29.481Z,19.4
2018-06-11T06:25:37.099Z,19.5
2018-06-11T06:26:42.805Z,19.5
2018-06-11T06:27:46.346Z,19.5
2018-06-11T06:28:47.928Z,19.4
2018-06-11T06:29:49.221Z,19.5
2018-06-11T06:30:51.916Z,19.6
2018-06-11T06:31:53.195Z,19.6
2018-06-11T06:32:57.909Z,19.5
2018-06-11T06:33:59.366Z,19.6
2018-06-11T06:35:00.828Z,19.6
2018-06-11T06:36:06.272Z,19.6
2018-06-11T06:37:07.714Z,19.6
2018-06-11T06:38:09.014Z,19.7
2018-06-11T06:39:25.293Z,19.7
2018-06-11T06:40:28.372Z,19.8
2018-06-11T06:41:29.676Z,19.7
2018-06-11T06:42:31.097Z,19.9
2018-06-11T06:43:32.405Z,19.8
2018-06-11T06:44:33.767Z,19.8
2018-06-11T06:45:35.072Z,20
2018-06-11T06:46:36.368Z,19.9
2018-06-11T06:47:40.556Z,19.9
2018-06-11T06:48:42.239Z,19.8
2018-06-11T06:49:43.829Z,19.9
2018-06-11T06:50:45.175Z,19.8
2018-06-11T06:51:47.922Z,19.9
2018-06-11T06:52:49.349Z,20
2018-06-11T06:53:50.913Z,20
2018-06-11T06:54:52.236Z,20
2018-06-11T06:55:55.697Z,20
2018-06-11T06:56:57.117Z,20
2018-06-11T06:57:58.682Z,20
2018-06-11T06:58:59.997Z,20
2018-06-11T07:00:01.396Z,20.1
2018-06-11T07:01:05.166Z,20.1
2018-06-11T07:02:06.556Z,20.1
2018-06-11T07:03:08.866Z,20
2018-06-11T07:04:21.044Z,20.1
2018-06-11T07:05:22.584Z,20
2018-06-11T07:06:30.961Z,20
2018-06-11T07:07:34.701Z,20
2018-06-11T07:08:37.927Z,20.2
2018-06-11T07:09:39.393Z,20.1
2018-06-11T07:10:43.176Z,19.9
2018-06-11T07:11:47.692Z,20
2018-06-11T07:12:51.538Z,20.1
2018-06-11T07:13:52.821Z,20.1
2018-06-11T07:14:59.559Z,19.9
2018-06-11T07:16:00.954Z,20.2
2018-06-11T07:17:04.751Z,20.3
2018-06-11T07:18:06.233Z,20.2
2018-06-11T07:19:09.401Z,20.3
2018-06-11T07:20:11.109Z,20.3
2018-06-11T07:21:12.618Z,20.3
2018-06-11T07:22:13.944Z,20.4
2018-06-11T07:23:15.245Z,20.4
2018-06-11T07:24:16.551Z,20.4
2018-06-11T07:25:17.975Z,20.4
2018-06-11T07:26:19.332Z,20.4
2018-06-11T07:27:20.640Z,20.4
2018-06-11T07:28:21.922Z,20.4
2018-06-11T07:29:23.338Z,20.4
2018-06-11T07:30:24.703Z,20.5
2018-06-11T07:31:26.238Z,20.5
2018-06-11T07:32:27.902Z,20.5
2018-06-11T07:33:29.250Z,20.6
2018-06-11T07:34:30.577Z,20.6
2018-06-11T07:35:32.177Z,20.5
2018-06-11T07:36:34.193Z,20.5
2018-06-11T07:37:35.532Z,20.6
2018-06-11T07:38:37.080Z,20.6
2018-06-11T07:39:38.768Z,20.6
2018-06-11T07:40:45.548Z,20.6
2018-06-11T07:41:47.198Z,20.6
2018-06-11T07:42:49.668Z,20.6
2018-06-11T07:43:52.302Z,20.6
2018-06-11T07:44:53.767Z,20.7
2018-06-11T07:45:55.095Z,20.7
2018-06-11T07:46:56.580Z,20.7
2018-06-11T07:47:58.330Z,20.7
2018-06-11T07:48:59.639Z,20.7
2018-06-11T07:50:03.311Z,20.8
2018-06-11T07:51:09.366Z,20.8
2018-06-11T07:52:13.452Z,20.9
2018-06-11T07:53:17.567Z,20.9
2018-06-11T07:54:19.100Z,20.8
2018-06-11T07:55:20.415Z,20.8
2018-06-11T07:56:25.698Z,20.9
2018-06-11T07:57:28.617Z,21
2018-06-11T07:58:29.973Z,21
2018-06-11T07:59:34.249Z,21
2018-06-11T08:00:40.490Z,21
2018-06-11T08:01:42.477Z,21
2018-06-11T08:02:43.851Z,21
2018-06-11T08:03:45.200Z,21
2018-06-11T08:04:46.532Z,21.1
2018-06-11T08:05:48.024Z,21.1
2018-06-11T08:06:49.337Z,21.1
2018-06-11T08:07:51.099Z,21.1
2018-06-11T08:08:52.420Z,21.1
2018-06-11T08:09:53.806Z,21.2
2018-06-11T08:10:55.110Z,21.2
2018-06-11T08:11:56.426Z,21.2
2018-06-11T08:12:57.836Z,21.2
2018-06-11T08:13:59.132Z,21.2
2018-06-11T08:15:00.438Z,21.3
2018-06-11T08:16:04.566Z,21.2
2018-06-11T08:17:07.592Z,21.3
2018-06-11T08:18:10.225Z,21.2
2018-06-11T08:19:11.571Z,21.2
2018-06-11T08:20:12.946Z,21.3
2018-06-11T08:22:32.292Z,21.3
2018-06-11T08:23:33.678Z,21.4
2018-06-11T08:24:37.120Z,21.3
2018-06-11T08:25:38.449Z,21.4
2018-06-11T08:26:40.795Z,21.4
2018-06-11T08:27:42.115Z,21.5
2018-06-11T08:28:43.494Z,21.5
2018-06-11T08:29:44.832Z,21.4
2018-06-11T08:30:48.755Z,21.5
2018-06-11T08:31:50.143Z,21.5
2018-06-11T08:32:51.444Z,21.5
2018-06-11T08:33:52.878Z,21.6
2018-06-11T08:34:54.171Z,21.6
2018-06-11T08:35:56.118Z,21.6
2018-06-11T08:36:57.638Z,21.6
2018-06-11T08:38:01.776Z,21.6
2018-06-11T08:39:10.317Z,21.6
2018-06-11T08:40:11.688Z,21.7
2018-06-11T08:41:13.978Z,21.7
2018-06-11T08:42:15.401Z,21.7
2018-06-11T08:43:18.060Z,21.7
2018-06-11T08:44:23.366Z,21.7
2018-06-11T08:45:24.847Z,21.7
2018-06-11T08:46:26.112Z,21.8
2018-06-11T08:47:27.437Z,21.7
2018-06-11T08:48:28.982Z,21.8
2018-06-11T08:49:30.326Z,21.7
2018-06-11T08:50:31.659Z,21.8
2018-06-11T08:51:35.331Z,21.8
2018-06-11T08:52:36.827Z,21.8
2018-06-11T08:53:38.263Z,21.8
2018-06-11T08:54:39.591Z,21.8
2018-06-11T08:55:40.853Z,21.9
2018-06-11T08:56:42.153Z,21.9
2018-06-11T08:57:44.597Z,21.9
2018-06-11T08:58:45.975Z,21.9
2018-06-11T08:59:47.481Z,21.9
2018-06-11T09:00:48.821Z,22
2018-06-11T09:01:57.277Z,22
2018-06-11T09:02:58.777Z,22
2018-06-11T09:04:00.180Z,22
2018-06-11T09:05:01.813Z,22
2018-06-11T09:06:03.507Z,22
2018-06-11T09:07:05.136Z,22
2018-06-11T09:08:11.332Z,22.1
2018-06-11T09:09:12.995Z,22.1
2018-06-11T09:10:16.741Z,22.1
2018-06-11T09:11:18.217Z,22.1
2018-06-11T09:12:19.568Z,22.1
2018-06-11T09:13:22.131Z,22.2
2018-06-11T09:14:26.602Z,22.2
2018-06-11T09:15:30.405Z,22.1
2018-06-11T09:16:36.879Z,22.2
2018-06-11T09:17:39.696Z,22.2
2018-06-11T09:18:40.970Z,22.2
2018-06-11T09:19:46.220Z,22.2
2018-06-11T09:20:47.664Z,22.3
2018-06-11T09:21:48.958Z,22.2
2018-06-11T09:22:52.563Z,22.3
2018-06-11T09:23:59.979Z,22.3
2018-06-11T09:26:15.478Z,22.4
2018-06-11T09:27:17.000Z,22.4
2018-06-11T09:28:21.204Z,22.3
2018-06-11T09:29:22.494Z,22.4
2018-06-11T09:30:23.946Z,22.4
2018-06-11T09:31:25.333Z,22.4
2018-06-11T09:32:29.261Z,22.4
2018-06-11T09:33:42.107Z,22.5
2018-06-11T09:34:43.438Z,22.5
2018-06-11T09:35:45.084Z,22.5
2018-06-11T09:36:47.096Z,22.5
2018-06-11T09:37:48.478Z,22.5
2018-06-11T09:38:49.831Z,22.5
2018-06-11T09:39:51.162Z,22.5
2018-06-11T09:40:52.539Z,22.5
2018-06-11T09:41:53.916Z,22.5
2018-06-11T09:42:55.245Z,22.5
2018-06-11T09:43:56.640Z,22.6
2018-06-11T09:44:57.980Z,22.7
2018-06-11T09:46:01.731Z,22.7
2018-06-11T09:47:05.632Z,22.7
2018-06-11T09:48:07.052Z,22.7
2018-06-11T09:49:08.693Z,22.6
2018-06-11T09:50:12.050Z,22.7
2018-06-11T09:51:13.358Z,22.8
2018-06-11T09:52:14.756Z,22.8
2018-06-11T09:53:18.442Z,22.7
2018-06-11T09:54:19.758Z,22.8
2018-06-11T09:55:21.135Z,22.8
2018-06-11T09:56:22.674Z,22.8
2018-06-11T09:57:25.023Z,22.8
2018-06-11T09:58:26.367Z,22.9
2018-06-11T09:59:29.242Z,22.9
2018-06-11T10:00:31.876Z,22.9
2018-06-11T10:01:33.186Z,22.9
2018-06-11T10:02:37.435Z,22.9
2018-06-11T10:03:39.918Z,22.9
2018-06-11T10:04:41.326Z,22.9
2018-06-11T10:05:43.112Z,22.9
2018-06-11T10:06:44.706Z,23
2018-06-11T10:07:46.016Z,23
2018-06-11T10:08:48.303Z,23
2018-06-11T10:09:49.828Z,23
2018-06-11T10:10:55.964Z,23
2018-06-11T10:11:57.256Z,23
2018-06-11T10:12:59.101Z,23
2018-06-11T10:14:00.471Z,23
2018-06-11T10:15:02.829Z,23
2018-06-11T10:16:04.348Z,23.1
2018-06-11T10:17:18.009Z,23.2
2018-06-11T10:18:19.643Z,23.1
2018-06-11T10:19:20.986Z,23.2
2018-06-11T10:20:22.252Z,23.3
2018-06-11T10:21:23.987Z,23.2
2018-06-11T10:22:25.310Z,23.3
2018-06-11T10:23:26.715Z,23.3
2018-06-11T10:24:28.522Z,23.3
2018-06-11T10:25:30.848Z,23.3
2018-06-11T10:26:32.176Z,23.3
2018-06-11T10:27:35.410Z,23.4
2018-06-11T10:28:37.373Z,23.5
2018-06-11T10:29:42.651Z,23.4
2018-06-11T10:30:43.969Z,23.5
2018-06-11T10:31:45.296Z,23.5
2018-06-11T10:32:46.638Z,23.5
2018-06-11T10:33:48.026Z,23.6
2018-06-11T10:34:49.709Z,23.5
2018-06-11T10:35:51.100Z,23.6
2018-06-11T10:36:52.710Z,23.7
2018-06-11T10:38:08.617Z,23.6
2018-06-11T10:39:13.394Z,23.7
2018-06-11T10:40:14.702Z,23.6
2018-06-11T10:41:16.211Z,23.6
2018-06-11T10:42:17.492Z,23.7
2018-06-11T10:43:20.026Z,23.8
2018-06-11T10:44:29.398Z,23.8
2018-06-11T10:45:30.648Z,23.8
2018-06-11T10:46:31.891Z,23.8
2018-06-11T10:47:37.787Z,23.9
2018-06-11T10:48:40.885Z,24
2018-06-11T10:49:43.307Z,23.9
2018-06-11T10:50:44.679Z,23.9
2018-06-11T10:51:48.656Z,23.8
2018-06-11T10:52:50.282Z,23.9
2018-06-11T10:53:51.835Z,23.9
2018-06-11T10:55:07.578Z,23.9
2018-06-11T10:56:08.975Z,24.1
2018-06-11T10:57:12.356Z,24.3
2018-06-11T10:58:13.677Z,24.2
2018-06-11T10:59:15.965Z,24.2
2018-06-11T11:00:17.604Z,24.1
2018-06-11T11:01:24.410Z,24.1
2018-06-11T11:02:26.321Z,24.1
2018-06-11T11:03:33.968Z,24
2018-06-11T11:04:35.350Z,24.1
2018-06-11T11:05:36.823Z,24.1
2018-06-11T11:06:40.385Z,24.3
2018-06-11T11:07:42.292Z,24.3
2018-06-11T11:08:43.865Z,24.2
2018-06-11T11:09:47.236Z,24.2
2018-06-11T11:10:49.815Z,24.5
2018-06-11T11:11:53.950Z,24.7
2018-06-11T11:12:59.387Z,24.6
2018-06-11T11:14:01.324Z,24.4
2018-06-11T11:15:02.618Z,24.4
2018-06-11T11:16:04.031Z,24.3
2018-06-11T11:17:15.977Z,24.4
2018-06-11T11:18:24.927Z,24.3
2018-06-11T11:19:28.720Z,24.3
2018-06-11T11:20:30.973Z,24.3
2018-06-11T11:21:41.814Z,24.3
2018-06-11T11:22:58.653Z,24.4
2018-06-11T11:24:00.030Z,24.4
2018-06-11T11:25:01.374Z,24.5
2018-06-11T11:26:07.379Z,24.5
2018-06-11T11:27:08.987Z,24.6
2018-06-11T11:28:11.331Z,24.7
2018-06-11T11:29:12.731Z,24.6
2018-06-11T11:30:14.090Z,24.6
2018-06-11T11:31:15.406Z,24.5
2018-06-11T11:32:16.763Z,24.5
2018-06-11T11:33:20.495Z,24.5
2018-06-11T11:34:21.931Z,24.4
2018-06-11T11:35:23.248Z,24.4
2018-06-11T11:36:24.742Z,24.6
2018-06-11T11:37:28.643Z,24.6
2018-06-11T11:38:30.192Z,24.6
2018-06-11T11:39:31.510Z,24.6
2018-06-11T11:40:32.969Z,24.6
2018-06-11T11:41:34.296Z,24.6
2018-06-11T11:42:35.722Z,24.6
2018-06-11T11:43:43.531Z,24.6
2018-06-11T11:44:44.843Z,24.6
2018-06-11T11:45:46.350Z,24.7
2018-06-11T11:46:48.306Z,24.8
2018-06-11T11:47:52.886Z,24.9
2018-06-11T11:48:54.385Z,24.7
2018-06-11T11:49:57.084Z,24.7
2018-06-11T11:50:58.571Z,24.7
2018-06-11T11:52:07.032Z,24.6
2018-06-11T11:53:08.468Z,24.7
2018-06-11T11:54:09.843Z,24.6
2018-06-11T11:55:11.229Z,24.7
2018-06-11T11:56:12.735Z,24.8
2018-06-11T11:57:14.340Z,24.9
2018-06-11T11:58:15.846Z,25
2018-06-11T11:59:17.668Z,24.9
2018-06-11T12:00:19.361Z,24.8
2018-06-11T12:01:25.687Z,24.6
2018-06-11T12:02:27.238Z,24.7
2018-06-11T12:03:28.613Z,24.8
2018-06-11T12:04:30.003Z,24.8
2018-06-11T12:05:35.421Z,24.8
2018-06-11T12:06:37.088Z,24.9
2018-06-11T12:07:47.596Z,24.7
2018-06-11T12:08:49.737Z,24.7
2018-06-11T12:09:51.314Z,24.7
2018-06-11T12:10:52.911Z,24.8
2018-06-11T12:11:54.278Z,24.7
2018-06-11T12:13:03.182Z,24.8
2018-06-11T12:14:04.969Z,24.8
2018-06-11T12:15:07.310Z,24.7
2018-06-11T12:16:09.086Z,24.7
2018-06-11T12:17:11.678Z,24.8
2018-06-11T12:18:13.250Z,24.8
2018-06-11T12:19:14.690Z,24.9
2018-06-11T12:20:16.694Z,24.9
2018-06-11T12:21:20.372Z,25
2018-06-11T12:22:22.391Z,25.1
2018-06-11T12:23:24.334Z,25
2018-06-11T12:24:26.970Z,25.1
2018-06-11T12:25:28.457Z,25
2018-06-11T12:26:31.748Z,25
2018-06-11T12:27:36.221Z,25
2018-06-11T12:28:37.586Z,25
2018-06-11T12:29:39.070Z,25.1
2018-06-11T12:30:40.407Z,25.1
2018-06-11T12:31:41.912Z,25
2018-06-11T12:32:43.256Z,25
2018-06-11T12:33:46.111Z,25.1
2018-06-11T12:34:47.533Z,25.1
2018-06-11T12:35:48.830Z,25
2018-06-11T12:37:01.012Z,25
2018-06-11T12:38:09.354Z,25
2018-06-11T12:39:17.988Z,25
2018-06-11T12:40:19.925Z,25
2018-06-11T12:41:23.690Z,25
2018-06-11T12:42:28.171Z,24.9
2018-06-11T12:43:29.914Z,25
2018-06-11T12:44:34.606Z,25
2018-06-11T12:45:38.598Z,25.1
2018-06-11T12:46:43.920Z,25
2018-06-11T12:47:48.706Z,25.1
2018-06-11T12:48:50.559Z,25.1
2018-06-11T12:49:54.289Z,25
2018-06-11T12:50:56.097Z,25
2018-06-11T12:51:57.685Z,25
2018-06-11T12:52:59.033Z,24.9
2018-06-11T12:54:01.596Z,24.9
2018-06-11T12:55:03.256Z,25
2018-06-11T12:56:07.666Z,25
2018-06-11T12:57:11.101Z,25.1
2018-06-11T12:58:12.433Z,25.1
2018-06-11T12:59:14.175Z,25.2
2018-06-11T13:00:17.269Z,25.2
2018-06-11T13:01:21.363Z,25.1
2018-06-11T13:02:25.090Z,25.1
2018-06-11T13:03:26.729Z,25
2018-06-11T13:04:28.292Z,25
2018-06-11T13:05:29.861Z,25
2018-06-11T13:06:36.820Z,24.9
2018-06-11T13:07:41.043Z,25.1
2018-06-11T13:08:43.672Z,25.1
2018-06-11T13:09:45.014Z,25.2
2018-06-11T13:10:46.597Z,25.2
2018-06-11T13:11:48.186Z,25.3
2018-06-11T13:12:49.671Z,25.3
2018-06-11T13:13:52.224Z,25.3
2018-06-11T13:15:04.229Z,25.2
2018-06-11T13:16:05.845Z,25.2
2018-06-11T13:17:15.063Z,25.2
2018-06-11T13:18:16.701Z,25.1
2018-06-11T13:19:26.108Z,25.1
2018-06-11T13:20:28.711Z,25.3
2018-06-11T13:21:33.208Z,25.3
2018-06-11T13:22:34.703Z,25.3
2018-06-11T13:24:05.135Z,25.4
2018-06-11T13:25:07.237Z,25.4
2018-06-11T13:26:11.719Z,25.3
2018-06-11T13:27:14.161Z,25.2
2018-06-11T13:28:32.313Z,25.2
2018-06-11T13:29:36.544Z,25.3
2018-06-11T13:30:38.182Z,25.3
2018-06-11T13:31:42.204Z,25.3
2018-06-11T13:32:55.711Z,25.3
2018-06-11T13:33:57.296Z,25.3
2018-06-11T13:35:00.006Z,25.2
2018-06-11T13:36:01.647Z,25.3
2018-06-11T13:37:12.544Z,25.2
2018-06-11T13:38:15.547Z,25.2
2018-06-11T13:39:17.298Z,25.3
2018-06-11T13:40:24.625Z,25.2
2018-06-11T13:41:27.024Z,25.3
2018-06-11T13:42:28.643Z,25.3
2018-06-11T13:43:32.389Z,25.3
2018-06-11T13:44:34.214Z,25.3
2018-06-11T13:45:38.703Z,25.4
2018-06-11T13:46:45.736Z,25.4
2018-06-11T13:47:51.376Z,25.3
2018-06-11T13:48:53.360Z,25.3
2018-06-11T13:49:55.556Z,25.5
2018-06-11T13:50:57.097Z,25.4
2018-06-11T13:51:58.537Z,25.5
2018-06-11T13:53:00.246Z,25.5
2018-06-11T13:54:02.354Z,25.6
2018-06-11T13:55:06.010Z,25.6
2018-06-11T13:56:21.764Z,25.6
2018-06-11T13:57:25.734Z,25.6
2018-06-11T13:58:27.536Z,25.6
2018-06-11T13:59:29.167Z,25.7
2018-06-11T14:00:32.650Z,25.8
2018-06-11T14:01:34.673Z,25.8
2018-06-11T14:02:36.291Z,25.9
2018-06-11T14:03:37.973Z,25.9